createdAt,value
2022-09-16T00:00:48.820Z,100470.56
2022-09-16T00:03:17.123Z,100467.63
2022-09-16T00:05:46.431Z,100472.47
2022-09-16T00:08:14.591Z,100467.47
2022-09-16T00:10:43.634Z,100484.38
2022-09-16T00:13:12.294Z,100484.38
2022-09-16T00:15:46.854Z,100478.97
2022-09-16T00:18:32.237Z,100485.69
2022-09-16T00:20:59.235Z,100483.56
2022-09-16T00:23:26.175Z,100484.38
2022-09-16T00:25:54.221Z,100489.22
2022-09-16T00:28:22.605Z,100479.38
2022-09-16T00:31:07.967Z,100482.94
2022-09-16T00:33:34.974Z,100482.72
2022-09-16T00:36:10.621Z,100475.41
2022-09-16T00:38:55.987Z,100474.78
2022-09-16T00:41:30.956Z,100470.41
2022-09-16T00:44:01.852Z,100468.72
2022-09-16T00:46:45.632Z,100473.50
2022-09-16T00:49:20.560Z,100472.91
2022-09-16T00:51:50.733Z,100481.66
2022-09-16T00:54:18.767Z,100478.72
2022-09-16T00:56:49.534Z,100470.19
2022-09-16T00:59:24.525Z,100465.59
2022-09-16T01:01:53.105Z,100477.31
2022-09-16T01:05:06.754Z,100476.84
2022-09-16T01:07:54.207Z,100462.66
2022-09-16T01:10:42.290Z,100472.91
2022-09-16T01:13:12.732Z,100471.66
2022-09-16T01:15:48.572Z,100472.50
2022-09-16T01:18:40.181Z,100466.88
2022-09-16T01:21:33.800Z,100472.13
2022-09-16T01:24:20.739Z,100480.03
2022-09-16T01:26:59.774Z,100473.75
2022-09-16T01:29:44.597Z,100472.72
2022-09-16T01:32:40.133Z,100473.97
2022-09-16T01:35:12.906Z,100475.22
2022-09-16T01:38:04.297Z,100477.31
2022-09-16T01:40:48.962Z,100476.47
2022-09-16T01:43:36.804Z,100468.53
2022-09-16T01:46:15.964Z,100470.59
2022-09-16T01:48:54.721Z,100463.06
2022-09-16T01:52:04.894Z,100473.94
2022-09-16T01:54:46.851Z,100465.13
2022-09-16T01:57:41.134Z,100474.13
2022-09-16T02:00:11.536Z,100466.41
2022-09-16T02:03:11.777Z,100459.28
2022-09-16T02:05:51.201Z,100462.22
2022-09-16T02:08:26.026Z,100458.00
2022-09-16T02:11:16.578Z,100451.75
2022-09-16T02:14:06.261Z,100447.59
2022-09-16T02:16:39.013Z,100443.38
2022-09-16T02:19:34.661Z,100449.84
2022-09-16T02:22:07.639Z,100448.81
2022-09-16T02:24:36.053Z,100453.03
2022-09-16T02:27:06.658Z,100451.53
2022-09-16T02:29:41.573Z,100450.09
2022-09-16T02:32:15.530Z,100456.81
2022-09-16T02:35:02.657Z,100457.81
2022-09-16T02:37:52.716Z,100460.53
2022-09-16T02:40:35.601Z,100448.00
2022-09-16T02:43:20.994Z,100452.81
2022-09-16T02:46:10.510Z,100448.81
2022-09-16T02:48:55.906Z,100449.66
2022-09-16T02:51:57.546Z,100448.41
2022-09-16T02:54:55.369Z,100451.31
2022-09-16T02:57:22.665Z,100443.81
2022-09-16T02:59:50.374Z,100449.25
2022-09-16T03:02:17.366Z,100445.09
2022-09-16T03:04:44.748Z,100447.59
2022-09-16T03:07:13.741Z,100442.38
2022-09-16T03:09:43.711Z,100448.00
2022-09-16T03:12:25.737Z,100446.31
2022-09-16T03:15:39.229Z,100447.81
2022-09-16T03:18:27.336Z,100456.81
2022-09-16T03:21:25.412Z,100437.22
2022-09-16T03:24:31.185Z,100440.13
2022-09-16T03:27:07.959Z,100439.91
2022-09-16T03:29:45.215Z,100442.63
2022-09-16T03:32:35.858Z,100433.03
2022-09-16T03:35:21.777Z,100424.00
2022-09-16T03:38:08.589Z,100426.53
2022-09-16T03:40:36.133Z,100421.31
2022-09-16T03:43:15.077Z,100422.53
2022-09-16T03:45:42.826Z,100419.19
2022-09-16T03:48:28.254Z,100415.88
2022-09-16T03:50:55.318Z,100416.69
2022-09-16T03:53:22.221Z,100419.00
2022-09-16T03:56:07.705Z,100417.53
2022-09-16T03:58:34.963Z,100418.38
2022-09-16T04:01:01.897Z,100419.66
2022-09-16T04:03:47.559Z,100405.47
2022-09-16T04:06:14.901Z,100417.56
2022-09-16T04:08:44.218Z,100413.81
2022-09-16T04:11:31.989Z,100415.47
2022-09-16T04:13:59.277Z,100416.28
2022-09-16T04:16:45.487Z,100410.84
2022-09-16T04:19:13.710Z,100411.91
2022-09-16T04:21:42.137Z,100408.56
2022-09-16T04:24:27.572Z,100418.81
2022-09-16T04:26:54.542Z,100411.69
2022-09-16T04:29:21.483Z,100414.84
2022-09-16T04:31:48.871Z,100408.59
2022-09-16T04:34:34.354Z,100415.31
2022-09-16T04:37:01.702Z,100407.59
2022-09-16T04:39:28.681Z,100408.22
2022-09-16T04:41:55.610Z,100400.06
2022-09-16T04:44:22.543Z,100408.03
2022-09-16T04:46:49.495Z,100409.44
2022-09-16T04:49:16.446Z,100397.56
2022-09-16T04:51:43.554Z,100403.19
2022-09-16T04:54:28.889Z,100399.66
2022-09-16T04:56:55.997Z,100404.69
2022-09-16T04:59:22.932Z,100415.78
2022-09-16T05:01:49.911Z,100410.75
2022-09-16T05:04:16.957Z,100392.16
2022-09-16T05:06:44.502Z,100415.97
2022-09-16T05:09:12.282Z,100424.34
2022-09-16T05:11:40.285Z,100423.91
2022-09-16T05:14:10.537Z,100413.66
2022-09-16T05:16:52.341Z,100404.28
2022-09-16T05:19:19.328Z,100416.78
2022-09-16T05:21:46.389Z,100413.06
2022-09-16T05:24:34.917Z,100412.41
2022-09-16T05:27:02.442Z,100398.19
2022-09-16T05:29:29.328Z,100403.63
2022-09-16T05:31:56.493Z,100407.38
2022-09-16T05:34:28.368Z,100412.38
2022-09-16T05:36:56.510Z,100408.19
2022-09-16T05:39:41.752Z,100420.28
2022-09-16T05:42:09.461Z,100418.38
2022-09-16T05:44:54.677Z,100415.44
2022-09-16T05:47:21.768Z,100415.81
2022-09-16T05:49:48.679Z,100416.66
2022-09-16T05:52:15.605Z,100425.47
2022-09-16T05:55:01.136Z,100419.94
2022-09-16T05:57:28.107Z,100419.94
2022-09-16T05:59:55.026Z,100420.81
2022-09-16T06:02:22.052Z,100422.28
2022-09-16T06:04:49.289Z,100415.81
2022-09-16T06:07:17.180Z,100422.91
2022-09-16T06:09:44.245Z,100423.34
2022-09-16T06:12:11.142Z,100414.13
2022-09-16T06:14:47.110Z,100419.56
2022-09-16T06:17:19.818Z,100425.41
2022-09-16T06:19:46.849Z,100421.44
2022-09-16T06:22:13.737Z,100408.03
2022-09-16T06:24:40.653Z,100420.78
2022-09-16T06:27:08.511Z,100414.88
2022-09-16T06:29:47.589Z,100422.38
2022-09-16T06:32:14.730Z,100427.81
2022-09-16T06:34:41.720Z,100426.97
2022-09-16T06:37:12.530Z,100430.53
2022-09-16T06:39:39.505Z,100420.31
2022-09-16T06:42:15.094Z,100428.03
2022-09-16T06:44:42.032Z,100424.03
2022-09-16T06:47:08.972Z,100414.63
2022-09-16T06:49:35.919Z,100416.44
2022-09-16T06:52:02.963Z,100414.72
2022-09-16T06:54:29.942Z,100420.16
2022-09-16T06:56:57.498Z,100417.81
2022-09-16T06:59:24.421Z,100413.44
2022-09-16T07:01:52.153Z,100414.28
2022-09-16T07:04:19.113Z,100410.09
2022-09-16T07:09:33.631Z,100410.88
2022-09-16T07:12:01.317Z,100409.00
2022-09-16T07:14:28.827Z,100425.53
2022-09-16T07:16:58.960Z,100428.25
2022-09-16T07:19:26.105Z,100426.16
2022-09-16T07:21:53.231Z,100429.31
2022-09-16T07:24:20.263Z,100439.34
2022-09-16T07:26:47.248Z,100431.75
2022-09-16T07:29:17.624Z,100434.88
2022-09-16T07:31:44.503Z,100433.78
2022-09-16T07:34:12.684Z,100419.53
2022-09-16T07:36:43.996Z,100438.28
2022-09-16T07:39:13.554Z,100433.75
2022-09-16T07:41:45.381Z,100436.00
2022-09-16T07:44:13.944Z,100436.22
2022-09-16T07:46:41.173Z,100439.00
2022-09-16T07:49:10.840Z,100422.16
2022-09-16T07:51:37.804Z,100441.66
2022-09-16T07:54:08.683Z,100435.78
2022-09-16T07:56:38.693Z,100438.94
2022-09-16T07:59:12.980Z,100447.25
2022-09-16T08:01:43.651Z,100455.34
2022-09-16T08:04:10.805Z,100454.59
2022-09-16T08:06:39.593Z,100453.72
2022-09-16T08:09:15.507Z,100458.66
2022-09-16T08:11:53.352Z,100458.53
2022-09-16T08:14:20.274Z,100467.47
2022-09-16T08:16:51.098Z,100459.19
2022-09-16T08:19:19.241Z,100465.00
2022-09-16T08:21:46.358Z,100475.91
2022-09-16T08:24:13.293Z,100472.59
2022-09-16T08:26:40.367Z,100464.56
2022-09-16T08:29:09.691Z,100474.22
2022-09-16T08:31:38.377Z,100470.13
2022-09-16T08:34:05.611Z,100471.53
2022-09-16T08:36:35.695Z,100476.53
2022-09-16T08:39:02.831Z,100471.97
2022-09-16T08:42:01.962Z,100485.59
2022-09-16T08:44:57.589Z,100475.19
2022-09-16T08:47:54.337Z,100476.66
2022-09-16T08:50:43.207Z,100488.19
2022-09-16T08:53:20.209Z,100486.84
2022-09-16T08:55:50.131Z,100487.59
2022-09-16T08:58:24.549Z,100476.53
2022-09-16T09:01:02.470Z,100489.03
2022-09-16T09:03:41.398Z,100490.88
2022-09-16T09:06:45.807Z,100491.16
2022-09-16T09:09:42.461Z,100486.84
2022-09-16T09:12:18.797Z,100501.31
2022-09-16T09:14:55.926Z,100494.63
2022-09-16T09:17:51.263Z,100497.66
2022-09-16T09:20:55.732Z,100484.25
2022-09-16T09:23:53.861Z,100485.91
2022-09-16T09:26:48.910Z,100490.88
2022-09-16T09:29:36.718Z,100484.31
2022-09-16T09:32:19.642Z,100479.13
2022-09-16T09:35:47.270Z,100474.50
2022-09-16T09:38:32.794Z,100479.06
2022-09-16T09:41:33.983Z,100478.56
2022-09-16T09:44:45.994Z,100478.22
2022-09-16T09:47:57.959Z,100471.25
2022-09-16T09:50:41.556Z,100468.72
2022-09-16T09:53:11.173Z,100480.50
2022-09-16T09:56:13.050Z,100474.50
2022-09-16T09:58:48.482Z,100485.56
2022-09-16T10:01:16.236Z,100466.50
2022-09-16T10:03:45.191Z,100471.44
2022-09-16T10:06:12.677Z,100479.41
2022-09-16T10:08:49.681Z,100468.38
2022-09-16T10:11:22.728Z,100475.28
2022-09-16T10:13:52.719Z,100479.06
2022-09-16T10:16:24.840Z,100470.66
2022-09-16T10:19:19.901Z,100464.69
2022-09-16T10:21:50.947Z,100472.66
2022-09-16T10:24:35.557Z,100476.31
2022-09-16T10:27:22.962Z,100471.16
2022-09-16T10:30:04.349Z,100472.66
2022-09-16T10:32:32.021Z,100476.78
2022-09-16T10:34:58.930Z,100473.88
2022-09-16T10:37:54.110Z,100453.84
2022-09-16T10:40:23.355Z,100460.06
2022-09-16T10:42:53.400Z,100458.59
2022-09-16T10:45:29.547Z,100460.47
2022-09-16T10:48:02.188Z,100448.09
2022-09-16T10:50:31.977Z,100444.50
2022-09-16T10:52:59.023Z,100451.16
2022-09-16T10:55:38.502Z,100451.31
2022-09-16T10:58:24.069Z,100458.13
2022-09-16T11:01:18.240Z,100444.38
2022-09-16T11:04:05.309Z,100450.69
2022-09-16T11:06:46.433Z,100444.56
2022-09-16T11:09:56.333Z,100448.38
2022-09-16T11:12:54.877Z,100452.31
2022-09-16T11:15:59.310Z,100447.06
2022-09-16T11:18:44.250Z,100438.75
2022-09-16T11:21:49.414Z,100439.09
2022-09-16T11:24:47.338Z,100437.56
2022-09-16T11:27:21.317Z,100427.47
2022-09-16T11:30:00.877Z,100434.81
2022-09-16T11:32:56.075Z,100429.34
2022-09-16T11:36:10.001Z,100439.63
2022-09-16T11:38:49.310Z,100429.25
2022-09-16T11:41:21.494Z,100429.13
2022-09-16T11:44:20.490Z,100430.19
2022-09-16T11:47:08.712Z,100429.97
2022-09-16T11:50:03.969Z,100437.69
2022-09-16T11:53:08.247Z,100429.72
2022-09-16T11:55:55.242Z,100433.97
2022-09-16T11:58:48.952Z,100442.19
2022-09-16T12:01:27.901Z,100441.97
2022-09-16T12:04:01.210Z,100435.44
2022-09-16T12:07:01.139Z,100446.63
2022-09-16T12:09:37.877Z,100452.56
2022-09-16T12:12:16.361Z,100433.91
2022-09-16T12:15:07.122Z,100444.34
2022-09-16T12:17:39.354Z,100443.06
2022-09-16T12:20:26.329Z,100455.16
2022-09-16T12:23:03.539Z,100464.94
2022-09-16T12:26:05.658Z,100479.41
2022-09-16T12:28:39.084Z,100469.75
2022-09-16T12:31:31.040Z,100476.34
2022-09-16T12:34:22.710Z,100486.78
2022-09-16T12:37:12.529Z,100497.84
2022-09-16T12:39:39.450Z,100511.94
2022-09-16T12:42:56.129Z,100525.78
2022-09-16T12:45:41.610Z,100544.38
2022-09-16T12:48:26.960Z,100552.69
2022-09-16T12:51:17.726Z,100552.88
2022-09-16T12:53:53.637Z,100551.31
2022-09-16T12:56:44.403Z,100554.47
2022-09-16T12:59:47.637Z,100550.03
2022-09-16T13:02:20.586Z,100537.31
2022-09-16T13:04:54.721Z,100528.66
2022-09-16T13:07:40.526Z,100533.53
2022-09-16T13:10:20.858Z,100529.47
2022-09-16T13:13:07.982Z,100531.63
2022-09-16T13:15:38.083Z,100534.47
2022-09-16T13:18:13.854Z,100525.75
2022-09-16T13:21:05.496Z,100527.47
2022-09-16T13:23:40.105Z,100519.53
2022-09-16T13:26:09.063Z,100512.38
2022-09-16T13:28:38.331Z,100515.31
2022-09-16T13:31:11.144Z,100517.03
2022-09-16T13:33:48.026Z,100512.41
2022-09-16T13:36:19.516Z,100518.78
2022-09-16T13:38:52.082Z,100518.88
2022-09-16T13:41:39.975Z,100520.66
2022-09-16T13:44:38.365Z,100523.13
2022-09-16T13:47:11.034Z,100522.00
2022-09-16T13:50:02.160Z,100522.28
2022-09-16T13:52:31.748Z,100533.41
2022-09-16T13:55:10.864Z,100535.53
2022-09-16T13:57:41.174Z,100529.75
2022-09-16T14:00:23.642Z,100529.31
2022-09-16T14:02:50.590Z,100524.38
2022-09-16T14:05:17.475Z,100535.94
2022-09-16T14:08:11.999Z,100542.56
2022-09-16T14:11:00.756Z,100539.44
2022-09-16T14:13:40.993Z,100534.72
2022-09-16T14:16:24.006Z,100539.22
2022-09-16T14:19:23.025Z,100538.63
2022-09-16T14:22:16.882Z,100536.84
2022-09-16T14:24:45.785Z,100526.09
2022-09-16T14:27:29.130Z,100520.94
2022-09-16T14:29:57.303Z,100521.84
2022-09-16T14:32:26.790Z,100511.28
2022-09-16T14:34:56.574Z,100516.53
2022-09-16T14:37:26.977Z,100510.03
2022-09-16T14:39:56.827Z,100507.31
2022-09-16T14:42:23.972Z,100497.91
2022-09-16T14:44:55.417Z,100491.69
2022-09-16T14:47:50.677Z,100503.66
2022-09-16T14:50:23.373Z,100498.41
2022-09-16T14:53:01.532Z,100491.31
2022-09-16T14:55:31.245Z,100488.16
2022-09-16T14:57:59.808Z,100494.41
2022-09-16T15:00:47.460Z,100487.09
2022-09-16T15:03:22.553Z,100488.38
2022-09-16T15:05:50.228Z,100491.16
2022-09-16T15:08:23.685Z,100486.81
2022-09-16T15:10:55.500Z,100494.75
2022-09-16T15:13:37.683Z,100485.91
2022-09-16T15:16:07.200Z,100484.19
2022-09-16T15:18:34.951Z,100492.38
2022-09-16T15:21:07.658Z,100486.31
2022-09-16T15:23:37.227Z,100484.47
2022-09-16T15:26:09.725Z,100486.22
2022-09-16T15:28:36.552Z,100482.31
2022-09-16T15:31:03.841Z,100489.56
2022-09-16T15:33:40.866Z,100485.97
2022-09-16T15:36:41.106Z,100497.75
2022-09-16T15:39:26.701Z,100491.69
2022-09-16T15:42:25.972Z,100496.16
2022-09-16T15:44:54.290Z,100491.66
2022-09-16T15:47:29.159Z,100492.03
2022-09-16T15:50:02.884Z,100483.69
2022-09-16T15:52:33.921Z,100462.41
2022-09-16T15:55:04.891Z,100485.00
2022-09-16T15:57:38.422Z,100493.81
2022-09-16T16:00:16.107Z,100494.69
2022-09-16T16:02:51.702Z,100483.00
2022-09-16T16:05:23.460Z,100486.78
2022-09-16T16:07:57.373Z,100487.63
2022-09-16T16:10:30.909Z,100497.06
2022-09-16T16:13:00.030Z,100488.28
2022-09-16T16:15:31.463Z,100497.50
2022-09-16T16:18:01.715Z,100505.25
2022-09-16T16:20:29.037Z,100500.22
2022-09-16T16:22:56.163Z,100501.50
2022-09-16T16:25:23.192Z,100501.88
2022-09-16T16:27:50.124Z,100491.69
2022-09-16T16:30:17.080Z,100508.41
2022-09-16T16:32:44.607Z,100509.66
2022-09-16T16:35:11.993Z,100512.59
2022-09-16T16:37:47.498Z,100513.66
2022-09-16T16:40:15.838Z,100514.91
2022-09-16T16:42:44.218Z,100511.16
2022-09-16T16:45:13.194Z,100512.44
2022-09-16T16:47:40.218Z,100519.97
2022-09-16T16:50:25.655Z,100516.59
2022-09-16T16:52:53.186Z,100519.13
2022-09-16T16:55:38.723Z,100519.97
2022-09-16T16:58:05.870Z,100518.50
2022-09-16T17:00:41.442Z,100517.47
2022-09-16T17:03:11.073Z,100517.91
2022-09-16T17:05:37.912Z,100528.13
2022-09-16T17:08:05.006Z,100528.97
2022-09-16T17:10:32.073Z,100525.22
2022-09-16T17:13:17.641Z,100521.25
2022-09-16T17:15:44.843Z,100514.56
2022-09-16T17:18:11.836Z,100520.63
2022-09-16T17:21:06.136Z,100517.50
2022-09-16T17:23:34.167Z,100530.47
2022-09-16T17:26:02.129Z,100532.31
2022-09-16T17:28:29.660Z,100530.00
2022-09-16T17:30:57.071Z,100538.38
2022-09-16T17:33:24.201Z,100533.38
2022-09-16T17:36:01.943Z,100538.38
2022-09-16T17:38:29.254Z,100539.63
2022-09-16T17:41:09.411Z,100543.81
2022-09-16T17:43:38.117Z,100550.25
2022-09-16T17:46:07.686Z,100546.91
2022-09-16T17:48:36.368Z,100547.34
2022-09-16T17:51:09.474Z,100554.22
2022-09-16T17:53:37.669Z,100557.53
2022-09-16T17:56:10.526Z,100548.97
2022-09-16T17:58:39.054Z,100549.81
2022-09-16T18:01:26.057Z,100552.72
2022-09-16T18:03:55.680Z,100552.47
2022-09-16T18:06:23.829Z,100548.97
2022-09-16T18:08:51.841Z,100545.34
2022-09-16T18:11:38.645Z,100556.00
2022-09-16T18:14:08.080Z,100557.25
2022-09-16T18:16:35.097Z,100557.88
2022-09-16T18:19:03.881Z,100560.78
2022-09-16T18:21:31.497Z,100558.91
2022-09-16T18:24:00.303Z,100561.44
2022-09-16T18:26:27.914Z,100564.09
2022-09-16T18:29:12.384Z,100561.19
2022-09-16T18:31:42.555Z,100563.69
2022-09-16T18:34:10.080Z,100562.44
2022-09-16T18:36:39.014Z,100564.72
2022-09-16T18:39:07.173Z,100572.22
2022-09-16T18:41:37.265Z,100567.19
2022-09-16T18:44:19.515Z,100578.66
2022-09-16T18:46:47.185Z,100574.47
2022-09-16T18:49:16.184Z,100581.97
2022-09-16T18:51:50.476Z,100572.56
2022-09-16T18:54:29.142Z,100577.38
2022-09-16T18:56:59.043Z,100581.97
2022-09-16T18:59:28.901Z,100579.44
2022-09-16T19:02:00.351Z,100588.63
2022-09-16T19:04:31.180Z,100584.63
2022-09-16T19:07:05.825Z,100579.22
2022-09-16T19:09:34.445Z,100593.38
2022-09-16T19:12:02.195Z,100585.84
2022-09-16T19:14:29.312Z,100584.00
2022-09-16T19:16:56.367Z,100589.78
2022-09-16T19:19:24.498Z,100583.69
2022-09-16T19:21:51.558Z,100565.69
2022-09-16T19:24:21.334Z,100585.16
2022-09-16T19:26:50.476Z,100582.44
2022-09-16T19:29:18.184Z,100580.78
2022-09-16T19:31:47.647Z,100584.91
2022-09-16T19:34:15.245Z,100582.22
2022-09-16T19:36:42.910Z,100581.56
2022-09-16T19:39:11.934Z,100571.72
2022-09-16T19:41:40.550Z,100589.28
2022-09-16T19:44:12.827Z,100589.69
2022-09-16T19:46:42.636Z,100588.84
2022-09-16T19:49:15.740Z,100598.69
2022-09-16T19:51:43.140Z,100589.69
2022-09-16T19:54:10.254Z,100596.78
2022-09-16T19:56:37.705Z,100583.78
2022-09-16T19:59:04.704Z,100586.31
2022-09-16T20:01:34.660Z,100596.34
2022-09-16T20:04:04.059Z,100599.84
2022-09-16T20:06:40.863Z,100598.19
2022-09-16T20:09:11.509Z,100604.63
2022-09-16T20:11:42.756Z,100599.19
2022-09-16T20:14:18.941Z,100614.19
2022-09-16T20:16:47.217Z,100610.22
2022-09-16T20:19:16.602Z,100602.66
2022-09-16T20:21:43.906Z,100608.09
2022-09-16T20:24:19.756Z,100603.06
2022-09-16T20:26:51.009Z,100591.13
2022-09-16T20:29:19.108Z,100599.28
2022-09-16T20:31:48.481Z,100613.66
2022-09-16T20:34:16.206Z,100612.41
2022-09-16T20:36:44.399Z,100614.44
2022-09-16T20:39:12.498Z,100615.28
2022-09-16T20:41:40.265Z,100622.75
2022-09-16T20:44:10.040Z,100612.72
2022-09-16T20:46:38.756Z,100627.72
2022-09-16T20:49:10.457Z,100591.28
2022-09-16T20:51:37.726Z,100633.56
2022-09-16T20:54:10.712Z,100626.44
2022-09-16T20:56:40.590Z,100626.44
2022-09-16T20:59:09.692Z,100623.88
2022-09-16T21:01:38.298Z,100627.13
2022-09-16T21:04:13.830Z,100629.56
2022-09-16T21:06:41.310Z,100633.31
2022-09-16T21:09:11.339Z,100632.94
2022-09-16T21:11:42.617Z,100629.50
2022-09-16T21:14:10.656Z,100637.81
2022-09-16T21:16:39.017Z,100630.66
2022-09-16T21:19:10.672Z,100635.50
2022-09-16T21:21:40.777Z,100640.72
2022-09-16T21:24:08.565Z,100637.31
2022-09-16T21:26:37.698Z,100635.59
2022-09-16T21:29:10.806Z,100627.50
2022-09-16T21:31:39.418Z,100631.03
2022-09-16T21:34:09.996Z,100636.00
2022-09-16T21:36:39.106Z,100633.88
2022-09-16T21:39:07.898Z,100640.13
2022-09-16T21:41:35.130Z,100630.34
2022-09-16T21:44:03.759Z,100626.78
2022-09-16T21:46:33.598Z,100627.81
2022-09-16T21:49:02.991Z,100638.19
2022-09-16T21:51:37.235Z,100629.63
2022-09-16T21:54:07.679Z,100639.41
2022-09-16T21:56:38.530Z,100639.22
2022-09-16T21:59:06.444Z,100636.25
2022-09-16T22:01:33.676Z,100633.16
2022-09-16T22:04:03.816Z,100636.88
2022-09-16T22:06:31.461Z,100622.19
2022-09-16T22:09:01.364Z,100649.13
2022-09-16T22:11:30.973Z,100640.34
2022-09-16T22:14:00.459Z,100656.69
2022-09-16T22:16:29.773Z,100650.78
2022-09-16T22:18:58.405Z,100652.88
2022-09-16T22:21:27.401Z,100654.53
2022-09-16T22:23:54.433Z,100650.78
2022-09-16T22:26:23.072Z,100651.44
2022-09-16T22:28:50.794Z,100653.78
2022-09-16T22:31:35.789Z,100651.31
2022-09-16T22:34:03.424Z,100649.66
2022-09-16T22:36:32.649Z,100657.13
2022-09-16T22:39:04.082Z,100654.22
2022-09-16T22:41:31.583Z,100643.78
2022-09-16T22:43:58.652Z,100612.75
2022-09-16T22:46:27.978Z,100646.38
2022-09-16T22:48:56.740Z,100644.25
2022-09-16T22:51:24.509Z,100630.00
2022-09-16T22:53:52.777Z,100643.41
2022-09-16T22:56:25.017Z,100650.69
2022-09-16T22:58:53.927Z,100640.06
2022-09-16T23:01:23.793Z,100644.38
2022-09-16T23:03:56.122Z,100649.41
2022-09-16T23:06:24.673Z,100646.69
2022-09-16T23:08:52.485Z,100649.97
2022-09-16T23:11:23.916Z,100649.97
2022-09-16T23:13:52.610Z,100643.66
2022-09-16T23:16:24.325Z,100652.88
2022-09-16T23:18:51.589Z,100653.88
2022-09-16T23:21:20.548Z,100652.88
2022-09-16T23:23:50.328Z,100646.59
2022-09-16T23:26:20.153Z,100643.06
2022-09-16T23:28:52.102Z,100647.75
2022-09-16T23:31:21.772Z,100644.66
2022-09-16T23:33:49.421Z,100649.25
2022-09-16T23:36:17.740Z,100655.28
2022-09-16T23:38:45.838Z,100655.38
2022-09-16T23:41:19.678Z,100650.78
2022-09-16T23:43:48.458Z,100628.34
2022-09-16T23:46:18.040Z,100655.56
2022-09-16T23:48:45.287Z,100652.03
2022-09-16T23:51:13.973Z,100649.13
2022-09-16T23:53:42.259Z,100642.97
2022-09-16T23:56:12.938Z,100652.94
2022-09-16T23:58:41.961Z,100648.63
